Terminal Aerodrome Forecast
Issued by NWS

Home | Current Version | Previous Version | Text Only | Print | Product List | Glossary On
Versions: 1 2 3 4 5 6 7 8 9 10 11 12 13 14 15 16 17 18 19 20 21
000
FTUS45 KREV 031123
TAFCXP
TAF
KCXP 031123Z 0312/0412 VRB03KT P6SM FEW030 SCT080 BKN140
     FM032100 24008KT P6SM VCTS SCT090CB BKN150
     FM040100 29009G16KT P6SM VCSH SCT080 BKN140
     FM040400 VRB04KT P6SM SCT070 BKN140=

USA.gov is the U.S. government's official web portal to all federal, state and local government web resources and services.